Airfield :
LOGIN :

Register | Disclaimer

   EN    FR    IT 

 










Legend :    VFR   Marginal VFR   IFR   Intensive IFR   Very Intensive IFR
Visi :
Ceiling :
>= 8 km
>= 3000ft
5 to 8 km
1000 to 3000 ft
1500m to 5 km
500 to 1000 ft
800 to 1500m
200 to 500 ft
< 800m
< 200 ft
Symbols :   Thunderstorms  Fog  Heavy snow  Heavy precipitations  Wind > 20 kt
SIGMETs :     Misc.  Thunderstorms  Icing  Turbulence  Mountain Waves  Volcanic Ashes







- Airport Elevation : 297 ft
- IATA code : UIP
- Download approach charts


LFRQ - Quimper Pluguffan

CURRENT METAR :
  • 141430Z AUTO 33021KT 300V360 9999 -RA FEW020/// BKN027/// BKN034/// ///CB 06/03 Q1000 TEMPO 29025G40KT 4000 SHRA BKN012CB

EXPIRED METARs :
  • 141400Z AUTO 28016KT 9999 FEW030/// BKN058/// BKN068/// ///TCU 08/04 Q1000 TEMPO 29025G40KT 4000 SHRA BKN012CB
  • 141330Z AUTO 28015G25KT 9999 SCT047/// BKN060/// BKN070/// ///TCU 08/05 Q1000 TEMPO 29025G40KT 4000 SHRA BKN012CB
  • 141300Z AUTO 29019KT 270V330 9999 FEW020/// SCT026/// BKN039/// ///TCU 08/05 Q1001 TEMPO 29025G40KT 4000 SHRA BKN012CB
  • 141230Z AUTO 30017KT 270V330 9999 FEW017/// SCT024/// BKN029/// ///CB 08/05 Q1002 TEMPO 29025G40KT 4000 SHRA BKN012CB
  • 141200Z AUTO 28015G26KT 9999 SCT031/// SCT046/// BKN060/// 09/05 Q1002 TEMPO 29025G40KT 4000 SHRA BKN012CB

TAF TAF LFRQ
Valid from the 14 at 15:00 until the 15 at 00:00 UTC


141400Z 1415/1424 30015G25KT 9999 SCT020TCU BKN035
TEMPO 1415/1424 29025G40KT 4000 SHRA BKN012CB
PROB40
TEMPO 1415/1424 TSRAGS
No reported NOTAMs for that airfield.
3 SIGMETs reported for the Brest FIR (LFRR) :
 
Severe turbulence
LFRR SIGMET 12 VALID 141400/141700 LFPW
LFRR BREST FIR/UIR SEV TURB FCST WI N4500 W00730 - N4500 W00800 - N4900 W00800 - N5000 W00200 - N5000 W00145 - N4830 W00115 - N4830 W00345 - N4630 W00100 - N4630 W00130 - N4545 W00145 - N4500 W00730 SFC/FL050 MOV S 30KT NC=
Embedded thunderstorms
LFRR SIGMET 11 VALID 141330/141530 LFPW
LFRR BREST FIR/UIR EMBD TS FCST WI N4845 W00800 - N4900 W00800 - N5000 W00200 - N5000 W00015 - N4900 W00015 - N4730 W00545 - N4845 W00800 TOP FL290 MOV E 30KT NC=
Severe turbulence
LFRR SIGMET 10 VALID 141300/141700 LFPW
LFRR BREST FIR/UIR SEV TURB FCST WI N4800 W00800 - N4900 W00800 - N4900 W00745 - N4830 W00530 - N4730 W00545 - N4800 W00800 FL150/250 MOV SE 50KT NC=



MET'MAP, your aeronautical weather chart ! - Copyright ORBIFLY December 2007 - Disclaimer

ORBIFLY MET'MAP TEAM :

Programming & Development : Alexandra Zaïnal
Concept & Development : Baudouin d'Aumeries
Co-Development & Prog : Marc-Olivier Méhu
Technical & hardware support : Manuel Goepfert

Contact : metmap@orbifly.com




SOURCES & CREDITS :

   NOAA